sensor_id;sensor_type;location;lat;lon;timestamp;temperature;humidity
10306;DHT22;5198;52.382;9.020;2023-06-05T00:03:41;13.90;97.40
10306;DHT22;5198;52.382;9.020;2023-06-05T00:07:46;13.80;97.40
10306;DHT22;5198;52.382;9.020;2023-06-05T00:11:49;13.70;97.10
10306;DHT22;5198;52.382;9.020;2023-06-05T00:15:52;13.60;97.00
10306;DHT22;5198;52.382;9.020;2023-06-05T00:19:55;13.60;97.20
10306;DHT22;5198;52.382;9.020;2023-06-05T00:24:01;13.50;97.60
10306;DHT22;5198;52.382;9.020;2023-06-05T00:28:04;13.40;97.50
10306;DHT22;5198;52.382;9.020;2023-06-05T00:32:07;13.30;97.60
10306;DHT22;5198;52.382;9.020;2023-06-05T00:36:09;13.20;98.70
10306;DHT22;5198;52.382;9.020;2023-06-05T00:40:14;13.10;97.60
10306;DHT22;5198;52.382;9.020;2023-06-05T00:44:17;13.10;98.70
10306;DHT22;5198;52.382;9.020;2023-06-05T00:48:20;13.00;97.80
10306;DHT22;5198;52.382;9.020;2023-06-05T00:52:23;12.90;97.70
10306;DHT22;5198;52.382;9.020;2023-06-05T00:56:27;12.90;97.50
10306;DHT22;5198;52.382;9.020;2023-06-05T01:00:30;12.80;97.30
10306;DHT22;5198;52.382;9.020;2023-06-05T01:04:33;12.70;97.30
10306;DHT22;5198;52.382;9.020;2023-06-05T01:08:38;12.70;97.40
10306;DHT22;5198;52.382;9.020;2023-06-05T01:12:43;12.60;97.60
10306;DHT22;5198;52.382;9.020;2023-06-05T01:16:47;12.50;97.40
10306;DHT22;5198;52.382;9.020;2023-06-05T01:20:51;12.40;97.30
10306;DHT22;5198;52.382;9.020;2023-06-05T01:24:59;12.40;97.60
10306;DHT22;5198;52.382;9.020;2023-06-05T01:29:03;12.30;97.60
10306;DHT22;5198;52.382;9.020;2023-06-05T01:33:09;12.20;97.70
10306;DHT22;5198;52.382;9.020;2023-06-05T01:37:14;12.20;98.10
10306;DHT22;5198;52.382;9.020;2023-06-05T01:41:22;12.10;98.00
10306;DHT22;5198;52.382;9.020;2023-06-05T01:45:25;12.00;98.00
10306;DHT22;5198;52.382;9.020;2023-06-05T01:49:28;11.90;98.30
10306;DHT22;5198;52.382;9.020;2023-06-05T01:53:31;11.80;97.90
10306;DHT22;5198;52.382;9.020;2023-06-05T01:57:36;11.70;97.70
10306;DHT22;5198;52.382;9.020;2023-06-05T02:01:39;11.70;98.20
10306;DHT22;5198;52.382;9.020;2023-06-05T02:05:45;11.60;97.90
10306;DHT22;5198;52.382;9.020;2023-06-05T02:09:48;11.50;97.80
10306;DHT22;5198;52.382;9.020;2023-06-05T02:13:52;11.50;97.80
10306;DHT22;5198;52.382;9.020;2023-06-05T02:17:56;11.40;98.00
10306;DHT22;5198;52.382;9.020;2023-06-05T02:21:59;11.40;98.00
10306;DHT22;5198;52.382;9.020;2023-06-05T02:26:02;11.30;98.40
10306;DHT22;5198;52.382;9.020;2023-06-05T02:30:07;11.30;98.10
10306;DHT22;5198;52.382;9.020;2023-06-05T02:34:10;11.20;98.10
10306;DHT22;5198;52.382;9.020;2023-06-05T02:38:13;11.20;98.70
10306;DHT22;5198;52.382;9.020;2023-06-05T02:42:16;11.10;98.30
10306;DHT22;5198;52.382;9.020;2023-06-05T02:46:21;11.00;98.40
10306;DHT22;5198;52.382;9.020;2023-06-05T02:50:26;11.00;98.30
10306;DHT22;5198;52.382;9.020;2023-06-05T02:54:29;11.00;98.40
10306;DHT22;5198;52.382;9.020;2023-06-05T02:58:32;10.90;98.40
10306;DHT22;5198;52.382;9.020;2023-06-05T03:02:36;10.80;98.80
10306;DHT22;5198;52.382;9.020;2023-06-05T03:06:39;10.80;98.40
10306;DHT22;5198;52.382;9.020;2023-06-05T03:10:45;10.70;98.30
10306;DHT22;5198;52.382;9.020;2023-06-05T03:14:48;10.70;98.30
10306;DHT22;5198;52.382;9.020;2023-06-05T03:18:52;10.60;98.30
10306;DHT22;5198;52.382;9.020;2023-06-05T03:22:56;10.60;97.90
10306;DHT22;5198;52.382;9.020;2023-06-05T03:26:59;10.60;98.10
10306;DHT22;5198;52.382;9.020;2023-06-05T03:31:02;10.50;97.50
10306;DHT22;5198;52.382;9.020;2023-06-05T03:35:07;10.50;97.80
10306;DHT22;5198;52.382;9.020;2023-06-05T03:39:10;10.50;97.70
10306;DHT22;5198;52.382;9.020;2023-06-05T03:43:13;10.50;98.00
10306;DHT22;5198;52.382;9.020;2023-06-05T03:47:17;10.50;98.10
10306;DHT22;5198;52.382;9.020;2023-06-05T03:51:23;10.40;97.80
10306;DHT22;5198;52.382;9.020;2023-06-05T03:55:31;10.40;97.80
10306;DHT22;5198;52.382;9.020;2023-06-05T03:59:42;10.40;98.00
10306;DHT22;5198;52.382;9.020;2023-06-05T04:03:45;10.40;97.80
10306;DHT22;5198;52.382;9.020;2023-06-05T04:07:50;10.40;98.00
10306;DHT22;5198;52.382;9.020;2023-06-05T04:11:53;10.50;97.90
10306;DHT22;5198;52.382;9.020;2023-06-05T04:15:56;10.50;97.30
10306;DHT22;5198;52.382;9.020;2023-06-05T04:19:59;10.50;96.90
10306;DHT22;5198;52.382;9.020;2023-06-05T04:24:04;10.50;97.00
10306;DHT22;5198;52.382;9.020;2023-06-05T04:28:09;10.50;96.90
10306;DHT22;5198;52.382;9.020;2023-06-05T04:32:13;10.50;97.40
10306;DHT22;5198;52.382;9.020;2023-06-05T04:36:18;10.60;97.40
10306;DHT22;5198;52.382;9.020;2023-06-05T04:40:23;10.60;98.00
10306;DHT22;5198;52.382;9.020;2023-06-05T04:44:26;10.70;97.70
10306;DHT22;5198;52.382;9.020;2023-06-05T04:48:29;10.80;97.80
10306;DHT22;5198;52.382;9.020;2023-06-05T04:52:32;10.80;98.20
10306;DHT22;5198;52.382;9.020;2023-06-05T04:56:38;10.90;99.10
10306;DHT22;5198;52.382;9.020;2023-06-05T05:00:41;10.90;99.10
10306;DHT22;5198;52.382;9.020;2023-06-05T05:04:46;11.00;98.40
10306;DHT22;5198;52.382;9.020;2023-06-05T05:08:49;11.10;99.10
10306;DHT22;5198;52.382;9.020;2023-06-05T05:12:54;11.10;98.80
10306;DHT22;5198;52.382;9.020;2023-06-05T05:16:56;11.20;99.20
10306;DHT22;5198;52.382;9.020;2023-06-05T05:20:59;11.30;98.00
10306;DHT22;5198;52.382;9.020;2023-06-05T05:25:04;11.30;98.40
10306;DHT22;5198;52.382;9.020;2023-06-05T05:29:08;11.40;97.40
10306;DHT22;5198;52.382;9.020;2023-06-05T05:33:11;11.50;97.30
10306;DHT22;5198;52.382;9.020;2023-06-05T05:37:15;11.50;97.40
10306;DHT22;5198;52.382;9.020;2023-06-05T05:41:18;11.60;98.20
10306;DHT22;5198;52.382;9.020;2023-06-05T05:45:23;11.70;98.50
10306;DHT22;5198;52.382;9.020;2023-06-05T05:49:26;11.80;99.90
10306;DHT22;5198;52.382;9.020;2023-06-05T05:53:30;11.90;99.90
10306;DHT22;5198;52.382;9.020;2023-06-05T05:57:33;12.00;99.90
10306;DHT22;5198;52.382;9.020;2023-06-05T06:01:37;12.00;99.90
10306;DHT22;5198;52.382;9.020;2023-06-05T06:05:40;12.00;99.90
10306;DHT22;5198;52.382;9.020;2023-06-05T06:09:43;12.20;99.90
10306;DHT22;5198;52.382;9.020;2023-06-05T06:13:47;12.20;99.90
10306;DHT22;5198;52.382;9.020;2023-06-05T06:17:52;12.30;99.90
10306;DHT22;5198;52.382;9.020;2023-06-05T06:21:55;12.40;99.90
10306;DHT22;5198;52.382;9.020;2023-06-05T06:25:58;12.40;99.60
10306;DHT22;5198;52.382;9.020;2023-06-05T06:30:01;12.50;98.90
10306;DHT22;5198;52.382;9.020;2023-06-05T06:34:06;12.60;99.60
10306;DHT22;5198;52.382;9.020;2023-06-05T06:38:11;12.70;99.40
10306;DHT22;5198;52.382;9.020;2023-06-05T06:42:14;12.80;98.20
10306;DHT22;5198;52.382;9.020;2023-06-05T06:46:17;12.90;98.50
10306;DHT22;5198;52.382;9.020;2023-06-05T06:50:21;13.00;98.50
10306;DHT22;5198;52.382;9.020;2023-06-05T06:54:24;13.20;98.20
10306;DHT22;5198;52.382;9.020;2023-06-05T06:58:30;13.30;98.50
10306;DHT22;5198;52.382;9.020;2023-06-05T07:02:32;13.40;98.40
10306;DHT22;5198;52.382;9.020;2023-06-05T07:06:37;13.60;98.20
10306;DHT22;5198;52.382;9.020;2023-06-05T07:10:40;13.70;99.10
10306;DHT22;5198;52.382;9.020;2023-06-05T07:14:43;13.90;99.30
10306;DHT22;5198;52.382;9.020;2023-06-05T07:18:46;14.00;98.50
10306;DHT22;5198;52.382;9.020;2023-06-05T07:22:50;14.20;98.80
10306;DHT22;5198;52.382;9.020;2023-06-05T07:26:54;14.30;99.00
10306;DHT22;5198;52.382;9.020;2023-06-05T07:30:57;14.40;98.90
10306;DHT22;5198;52.382;9.020;2023-06-05T07:35:05;14.60;98.20
10306;DHT22;5198;52.382;9.020;2023-06-05T07:39:10;14.70;98.80
10306;DHT22;5198;52.382;9.020;2023-06-05T07:43:13;14.90;99.90
10306;DHT22;5198;52.382;9.020;2023-06-05T07:47:17;15.10;99.30
10306;DHT22;5198;52.382;9.020;2023-06-05T07:51:20;15.20;98.60
10306;DHT22;5198;52.382;9.020;2023-06-05T07:55:24;15.30;98.60
10306;DHT22;5198;52.382;9.020;2023-06-05T07:59:27;15.50;99.90
10306;DHT22;5198;52.382;9.020;2023-06-05T08:03:31;15.60;98.60
10306;DHT22;5198;52.382;9.020;2023-06-05T08:07:34;15.80;98.60
10306;DHT22;5198;52.382;9.020;2023-06-05T08:11:38;16.00;99.90
10306;DHT22;5198;52.382;9.020;2023-06-05T08:15:41;16.20;99.50
10306;DHT22;5198;52.382;9.020;2023-06-05T08:19:45;16.30;99.60
10306;DHT22;5198;52.382;9.020;2023-06-05T08:23:48;16.50;99.00
10306;DHT22;5198;52.382;9.020;2023-06-05T08:27:53;16.70;99.90
10306;DHT22;5198;52.382;9.020;2023-06-05T08:31:56;16.90;99.90
10306;DHT22;5198;52.382;9.020;2023-06-05T08:36:00;17.10;99.90
10306;DHT22;5198;52.382;9.020;2023-06-05T08:40:04;17.30;99.90
10306;DHT22;5198;52.382;9.020;2023-06-05T08:44:13;17.40;99.70
10306;DHT22;5198;52.382;9.020;2023-06-05T08:48:16;17.60;99.50
10306;DHT22;5198;52.382;9.020;2023-06-05T08:52:20;17.90;99.90
10306;DHT22;5198;52.382;9.020;2023-06-05T08:56:24;18.10;99.90
10306;DHT22;5198;52.382;9.020;2023-06-05T09:00:30;18.30;99.80
10306;DHT22;5198;52.382;9.020;2023-06-05T09:04:33;18.50;99.90
10306;DHT22;5198;52.382;9.020;2023-06-05T09:08:36;18.70;99.90
10306;DHT22;5198;52.382;9.020;2023-06-05T09:12:51;19.00;99.90
10306;DHT22;5198;52.382;9.020;2023-06-05T09:16:56;19.10;99.90
10306;DHT22;5198;52.382;9.020;2023-06-05T09:20:59;19.40;99.90
10306;DHT22;5198;52.382;9.020;2023-06-05T09:25:13;19.60;99.90
10306;DHT22;5198;52.382;9.020;2023-06-05T09:29:20;19.90;99.90
10306;DHT22;5198;52.382;9.020;2023-06-05T09:33:25;20.20;99.90
10306;DHT22;5198;52.382;9.020;2023-06-05T09:41:31;20.60;99.90
10306;DHT22;5198;52.382;9.020;2023-06-05T09:45:43;20.80;99.90
10306;DHT22;5198;52.382;9.020;2023-06-05T09:49:48;21.20;99.90
10306;DHT22;5198;52.382;9.020;2023-06-05T09:53:51;21.40;99.90
10306;DHT22;5198;52.382;9.020;2023-06-05T09:57:54;21.90;99.90
10306;DHT22;5198;52.382;9.020;2023-06-05T10:02:02;22.00;99.90
10306;DHT22;5198;52.382;9.020;2023-06-05T10:06:08;22.30;99.90
10306;DHT22;5198;52.382;9.020;2023-06-05T10:10:21;22.70;99.90
10306;DHT22;5198;52.382;9.020;2023-06-05T10:14:24;23.00;99.90
10306;DHT22;5198;52.382;9.020;2023-06-05T10:18:27;23.30;99.90
10306;DHT22;5198;52.382;9.020;2023-06-05T10:22:32;23.60;99.90
10306;DHT22;5198;52.382;9.020;2023-06-05T10:26:46;23.90;99.90
10306;DHT22;5198;52.382;9.020;2023-06-05T10:35:31;24.30;99.90
10306;DHT22;5198;52.382;9.020;2023-06-05T10:39:41;24.60;99.90
10306;DHT22;5198;52.382;9.020;2023-06-05T10:43:46;24.90;99.80
10306;DHT22;5198;52.382;9.020;2023-06-05T10:47:50;25.10;99.90
10306;DHT22;5198;52.382;9.020;2023-06-05T10:51:54;25.40;99.90
10306;DHT22;5198;52.382;9.020;2023-06-05T10:56:02;25.50;99.90
10306;DHT22;5198;52.382;9.020;2023-06-05T11:00:05;25.90;99.90
10306;DHT22;5198;52.382;9.020;2023-06-05T11:04:09;26.00;96.80
10306;DHT22;5198;52.382;9.020;2023-06-05T11:08:13;26.10;99.90
10306;DHT22;5198;52.382;9.020;2023-06-05T11:12:18;26.30;99.60
10306;DHT22;5198;52.382;9.020;2023-06-05T11:16:28;26.50;99.90
10306;DHT22;5198;52.382;9.020;2023-06-05T11:20:49;26.70;99.40
10306;DHT22;5198;52.382;9.020;2023-06-05T11:29:24;27.00;99.30
10306;DHT22;5198;52.382;9.020;2023-06-05T11:33:28;27.20;98.40
10306;DHT22;5198;52.382;9.020;2023-06-05T11:37:31;27.40;99.40
10306;DHT22;5198;52.382;9.020;2023-06-05T11:41:43;27.50;98.90
10306;DHT22;5198;52.382;9.020;2023-06-05T11:45:50;27.70;99.00
10306;DHT22;5198;52.382;9.020;2023-06-05T11:49:53;27.90;98.80
10306;DHT22;5198;52.382;9.020;2023-06-05T11:53:56;28.10;97.30
10306;DHT22;5198;52.382;9.020;2023-06-05T11:57:59;28.30;97.50
10306;DHT22;5198;52.382;9.020;2023-06-05T12:02:04;28.40;97.60
10306;DHT22;5198;52.382;9.020;2023-06-05T12:06:07;28.50;98.20
10306;DHT22;5198;52.382;9.020;2023-06-05T12:10:10;28.60;97.40
10306;DHT22;5198;52.382;9.020;2023-06-05T12:14:27;28.80;98.10
10306;DHT22;5198;52.382;9.020;2023-06-05T12:18:34;28.90;96.30
10306;DHT22;5198;52.382;9.020;2023-06-05T12:22:37;29.10;96.90
10306;DHT22;5198;52.382;9.020;2023-06-05T12:26:49;29.20;94.30
10306;DHT22;5198;52.382;9.020;2023-06-05T12:30:53;29.20;96.60
10306;DHT22;5198;52.382;9.020;2023-06-05T12:34:58;29.30;96.70
10306;DHT22;5198;52.382;9.020;2023-06-05T12:39:09;29.40;95.80
10306;DHT22;5198;52.382;9.020;2023-06-05T12:43:18;29.40;96.20
10306;DHT22;5198;52.382;9.020;2023-06-05T12:47:21;29.50;95.80
10306;DHT22;5198;52.382;9.020;2023-06-05T12:51:26;29.60;96.20
10306;DHT22;5198;52.382;9.020;2023-06-05T12:55:29;29.70;95.50
10306;DHT22;5198;52.382;9.020;2023-06-05T12:59:32;29.80;96.30
10306;DHT22;5198;52.382;9.020;2023-06-05T13:03:35;29.90;95.70
10306;DHT22;5198;52.382;9.020;2023-06-05T13:07:40;30.00;95.80
10306;DHT22;5198;52.382;9.020;2023-06-05T13:11:43;30.00;95.40
10306;DHT22;5198;52.382;9.020;2023-06-05T13:15:46;30.10;94.60
10306;DHT22;5198;52.382;9.020;2023-06-05T13:19:49;30.20;95.50
10306;DHT22;5198;52.382;9.020;2023-06-05T13:23:53;30.30;91.30
10306;DHT22;5198;52.382;9.020;2023-06-05T13:27:56;30.20;94.10
10306;DHT22;5198;52.382;9.020;2023-06-05T13:31:59;30.20;93.40
10306;DHT22;5198;52.382;9.020;2023-06-05T13:36:02;30.20;94.00
10306;DHT22;5198;52.382;9.020;2023-06-05T13:40:06;30.20;93.10
10306;DHT22;5198;52.382;9.020;2023-06-05T13:44:13;30.20;93.90
10306;DHT22;5198;52.382;9.020;2023-06-05T13:48:16;30.20;94.70
10306;DHT22;5198;52.382;9.020;2023-06-05T13:52:19;30.20;94.00
10306;DHT22;5198;52.382;9.020;2023-06-05T13:56:23;30.30;94.40
10306;DHT22;5198;52.382;9.020;2023-06-05T14:00:27;30.20;93.80
10306;DHT22;5198;52.382;9.020;2023-06-05T14:08:33;30.30;93.20
10306;DHT22;5198;52.382;9.020;2023-06-05T14:12:37;30.30;92.70
10306;DHT22;5198;52.382;9.020;2023-06-05T14:16:40;30.40;90.70
10306;DHT22;5198;52.382;9.020;2023-06-05T14:20:43;30.30;92.00
10306;DHT22;5198;52.382;9.020;2023-06-05T14:24:46;30.40;93.60
10306;DHT22;5198;52.382;9.020;2023-06-05T14:28:50;30.40;92.70
10306;DHT22;5198;52.382;9.020;2023-06-05T14:32:53;30.30;92.10
10306;DHT22;5198;52.382;9.020;2023-06-05T14:36:56;30.20;92.60
10306;DHT22;5198;52.382;9.020;2023-06-05T14:40:59;30.10;88.80
10306;DHT22;5198;52.382;9.020;2023-06-05T14:45:04;30.00;91.20
10306;DHT22;5198;52.382;9.020;2023-06-05T14:49:07;30.00;92.40
10306;DHT22;5198;52.382;9.020;2023-06-05T14:53:09;30.00;88.90
10306;DHT22;5198;52.382;9.020;2023-06-05T14:57:12;29.90;92.00
10306;DHT22;5198;52.382;9.020;2023-06-05T15:01:17;29.90;92.30
10306;DHT22;5198;52.382;9.020;2023-06-05T15:05:19;29.90;91.80
10306;DHT22;5198;52.382;9.020;2023-06-05T15:09:22;30.00;92.20
10306;DHT22;5198;52.382;9.020;2023-06-05T15:13:25;30.00;92.30
10306;DHT22;5198;52.382;9.020;2023-06-05T15:17:29;30.00;90.80
10306;DHT22;5198;52.382;9.020;2023-06-05T15:21:32;30.00;90.60
10306;DHT22;5198;52.382;9.020;2023-06-05T15:25:35;30.00;90.40
10306;DHT22;5198;52.382;9.020;2023-06-05T15:29:38;30.00;90.60
10306;DHT22;5198;52.382;9.020;2023-06-05T15:33:43;30.00;92.20
10306;DHT22;5198;52.382;9.020;2023-06-05T15:37:46;30.00;91.80
10306;DHT22;5198;52.382;9.020;2023-06-05T15:41:49;30.10;89.00
10306;DHT22;5198;52.382;9.020;2023-06-05T15:45:52;30.10;90.90
10306;DHT22;5198;52.382;9.020;2023-06-05T15:49:57;30.10;91.30
10306;DHT22;5198;52.382;9.020;2023-06-05T15:54:00;30.20;90.90
10306;DHT22;5198;52.382;9.020;2023-06-05T15:58:23;30.40;91.10
10306;DHT22;5198;52.382;9.020;2023-06-05T16:02:25;30.50;91.70
10306;DHT22;5198;52.382;9.020;2023-06-05T16:06:30;30.70;91.10
10306;DHT22;5198;52.382;9.020;2023-06-05T16:10:33;30.90;90.90
10306;DHT22;5198;52.382;9.020;2023-06-05T16:14:36;31.00;90.90
10306;DHT22;5198;52.382;9.020;2023-06-05T16:18:39;31.20;90.60
10306;DHT22;5198;52.382;9.020;2023-06-05T16:22:43;31.40;91.40
10306;DHT22;5198;52.382;9.020;2023-06-05T16:26:46;31.50;92.20
10306;DHT22;5198;52.382;9.020;2023-06-05T16:30:49;31.60;90.90
10306;DHT22;5198;52.382;9.020;2023-06-05T16:34:53;31.60;85.50
10306;DHT22;5198;52.382;9.020;2023-06-05T16:38:58;31.50;85.50
10306;DHT22;5198;52.382;9.020;2023-06-05T16:43:01;31.40;87.80
10306;DHT22;5198;52.382;9.020;2023-06-05T16:47:05;31.20;85.00
10306;DHT22;5198;52.382;9.020;2023-06-05T16:51:08;31.00;81.90
10306;DHT22;5198;52.382;9.020;2023-06-05T16:55:13;30.80;85.60
10306;DHT22;5198;52.382;9.020;2023-06-05T16:59:17;30.60;83.00
10306;DHT22;5198;52.382;9.020;2023-06-05T17:03:20;30.40;86.90
10306;DHT22;5198;52.382;9.020;2023-06-05T17:07:23;30.10;77.50
10306;DHT22;5198;52.382;9.020;2023-06-05T17:11:28;29.80;79.60
10306;DHT22;5198;52.382;9.020;2023-06-05T17:15:31;29.60;83.10
10306;DHT22;5198;52.382;9.020;2023-06-05T17:19:34;29.50;85.00
10306;DHT22;5198;52.382;9.020;2023-06-05T17:23:37;29.30;84.90
10306;DHT22;5198;52.382;9.020;2023-06-05T17:27:41;29.20;86.70
10306;DHT22;5198;52.382;9.020;2023-06-05T17:31:44;29.00;85.80
10306;DHT22;5198;52.382;9.020;2023-06-05T17:35:53;28.80;86.10
10306;DHT22;5198;52.382;9.020;2023-06-05T17:39:56;28.60;85.80
10306;DHT22;5198;52.382;9.020;2023-06-05T17:44:01;28.40;85.10
10306;DHT22;5198;52.382;9.020;2023-06-05T17:48:08;28.20;86.30
10306;DHT22;5198;52.382;9.020;2023-06-05T17:52:11;28.00;85.70
10306;DHT22;5198;52.382;9.020;2023-06-05T17:56:14;27.80;85.40
10306;DHT22;5198;52.382;9.020;2023-06-05T18:00:19;27.60;85.10
10306;DHT22;5198;52.382;9.020;2023-06-05T18:04:22;27.40;85.20
10306;DHT22;5198;52.382;9.020;2023-06-05T18:08:26;27.20;86.40
10306;DHT22;5198;52.382;9.020;2023-06-05T18:12:29;27.00;86.60
10306;DHT22;5198;52.382;9.020;2023-06-05T18:16:34;26.90;86.80
10306;DHT22;5198;52.382;9.020;2023-06-05T18:20:37;26.70;87.80
10306;DHT22;5198;52.382;9.020;2023-06-05T18:24:40;26.50;86.70
10306;DHT22;5198;52.382;9.020;2023-06-05T18:28:43;26.40;88.30
10306;DHT22;5198;52.382;9.020;2023-06-05T18:32:48;26.20;87.90
10306;DHT22;5198;52.382;9.020;2023-06-05T18:36:51;26.10;89.10
10306;DHT22;5198;52.382;9.020;2023-06-05T18:40:54;25.90;90.60
10306;DHT22;5198;52.382;9.020;2023-06-05T18:44:57;25.70;90.80
10306;DHT22;5198;52.382;9.020;2023-06-05T18:49:02;25.50;90.70
10306;DHT22;5198;52.382;9.020;2023-06-05T18:53:05;25.40;91.60
10306;DHT22;5198;52.382;9.020;2023-06-05T18:57:08;25.20;91.00
10306;DHT22;5198;52.382;9.020;2023-06-05T19:01:11;24.90;91.60
10306;DHT22;5198;52.382;9.020;2023-06-05T19:05:16;24.80;92.00
10306;DHT22;5198;52.382;9.020;2023-06-05T19:09:19;24.60;91.40
10306;DHT22;5198;52.382;9.020;2023-06-05T19:13:24;24.40;91.40
10306;DHT22;5198;52.382;9.020;2023-06-05T19:17:28;24.20;91.80
10306;DHT22;5198;52.382;9.020;2023-06-05T19:21:32;24.00;93.20
10306;DHT22;5198;52.382;9.020;2023-06-05T19:25:36;23.80;92.50
10306;DHT22;5198;52.382;9.020;2023-06-05T19:29:39;23.60;92.90
10306;DHT22;5198;52.382;9.020;2023-06-05T19:33:42;23.40;92.30
10306;DHT22;5198;52.382;9.020;2023-06-05T19:37:47;23.20;93.00
10306;DHT22;5198;52.382;9.020;2023-06-05T19:41:50;23.00;93.70
10306;DHT22;5198;52.382;9.020;2023-06-05T19:45:54;22.90;94.90
10306;DHT22;5198;52.382;9.020;2023-06-05T19:49:57;22.70;95.50
10306;DHT22;5198;52.382;9.020;2023-06-05T19:54:05;22.50;95.00
10306;DHT22;5198;52.382;9.020;2023-06-05T19:58:08;22.30;96.50
10306;DHT22;5198;52.382;9.020;2023-06-05T20:02:12;22.10;95.40
10306;DHT22;5198;52.382;9.020;2023-06-05T20:06:15;22.00;97.30
10306;DHT22;5198;52.382;9.020;2023-06-05T20:10:19;21.80;95.70
10306;DHT22;5198;52.382;9.020;2023-06-05T20:14:23;21.60;96.70
10306;DHT22;5198;52.382;9.020;2023-06-05T20:18:26;21.50;97.50
10306;DHT22;5198;52.382;9.020;2023-06-05T20:22:29;21.30;97.80
10306;DHT22;5198;52.382;9.020;2023-06-05T20:26:34;21.20;97.20
10306;DHT22;5198;52.382;9.020;2023-06-05T20:30:37;21.10;97.50
10306;DHT22;5198;52.382;9.020;2023-06-05T20:34:40;20.90;96.60
10306;DHT22;5198;52.382;9.020;2023-06-05T20:38:43;20.80;96.90
10306;DHT22;5198;52.382;9.020;2023-06-05T20:42:48;20.70;96.50
10306;DHT22;5198;52.382;9.020;2023-06-05T20:46:52;20.50;98.00
10306;DHT22;5198;52.382;9.020;2023-06-05T20:50:57;20.40;97.40
10306;DHT22;5198;52.382;9.020;2023-06-05T20:55:02;20.30;96.30
10306;DHT22;5198;52.382;9.020;2023-06-05T20:59:07;20.20;95.00
10306;DHT22;5198;52.382;9.020;2023-06-05T21:03:10;20.10;98.90
10306;DHT22;5198;52.382;9.020;2023-06-05T21:07:13;19.90;96.80
10306;DHT22;5198;52.382;9.020;2023-06-05T21:11:17;19.80;96.70
10306;DHT22;5198;52.382;9.020;2023-06-05T21:15:22;19.70;98.70
10306;DHT22;5198;52.382;9.020;2023-06-05T21:19:25;19.50;98.90
10306;DHT22;5198;52.382;9.020;2023-06-05T21:23:28;19.40;99.90
10306;DHT22;5198;52.382;9.020;2023-06-05T21:27:31;19.30;99.70
10306;DHT22;5198;52.382;9.020;2023-06-05T21:31:45;19.10;99.10
10306;DHT22;5198;52.382;9.020;2023-06-05T21:35:48;19.00;99.70
10306;DHT22;5198;52.382;9.020;2023-06-05T21:39:51;18.90;98.60
10306;DHT22;5198;52.382;9.020;2023-06-05T21:43:54;18.80;98.00
10306;DHT22;5198;52.382;9.020;2023-06-05T21:47:58;18.70;97.80
10306;DHT22;5198;52.382;9.020;2023-06-05T21:52:02;18.60;98.80
10306;DHT22;5198;52.382;9.020;2023-06-05T21:56:05;18.40;99.90
10306;DHT22;5198;52.382;9.020;2023-06-05T22:00:08;18.30;99.70
10306;DHT22;5198;52.382;9.020;2023-06-05T22:04:13;18.20;99.10
10306;DHT22;5198;52.382;9.020;2023-06-05T22:08:16;18.10;98.40
10306;DHT22;5198;52.382;9.020;2023-06-05T22:12:21;18.00;97.50
10306;DHT22;5198;52.382;9.020;2023-06-05T22:16:26;17.90;98.40
10306;DHT22;5198;52.382;9.020;2023-06-05T22:20:33;17.80;97.30
10306;DHT22;5198;52.382;9.020;2023-06-05T22:24:36;17.70;98.30
10306;DHT22;5198;52.382;9.020;2023-06-05T22:28:40;17.70;98.40
10306;DHT22;5198;52.382;9.020;2023-06-05T22:32:43;17.50;98.70
10306;DHT22;5198;52.382;9.020;2023-06-05T22:36:49;17.50;98.90
10306;DHT22;5198;52.382;9.020;2023-06-05T22:40:53;17.30;98.10
10306;DHT22;5198;52.382;9.020;2023-06-05T22:44:56;17.20;97.40
10306;DHT22;5198;52.382;9.020;2023-06-05T22:48:59;17.10;97.80
10306;DHT22;5198;52.382;9.020;2023-06-05T22:53:05;17.00;98.50
10306;DHT22;5198;52.382;9.020;2023-06-05T22:57:08;17.00;98.20
10306;DHT22;5198;52.382;9.020;2023-06-05T23:01:11;16.90;99.90
10306;DHT22;5198;52.382;9.020;2023-06-05T23:05:18;16.70;98.50
10306;DHT22;5198;52.382;9.020;2023-06-05T23:09:22;16.60;99.30
10306;DHT22;5198;52.382;9.020;2023-06-05T23:13:25;16.50;99.10
10306;DHT22;5198;52.382;9.020;2023-06-05T23:17:29;16.40;99.90
10306;DHT22;5198;52.382;9.020;2023-06-05T23:21:32;16.30;99.90
10306;DHT22;5198;52.382;9.020;2023-06-05T23:25:36;16.20;99.10
10306;DHT22;5198;52.382;9.020;2023-06-05T23:29:40;16.10;98.40
10306;DHT22;5198;52.382;9.020;2023-06-05T23:33:43;16.00;99.30
10306;DHT22;5198;52.382;9.020;2023-06-05T23:37:46;15.90;98.60
10306;DHT22;5198;52.382;9.020;2023-06-05T23:41:51;15.80;99.00
10306;DHT22;5198;52.382;9.020;2023-06-05T23:45:55;15.70;99.20
10306;DHT22;5198;52.382;9.020;2023-06-05T23:49:58;15.70;98.60
10306;DHT22;5198;52.382;9.020;2023-06-05T23:54:01;15.60;98.40
10306;DHT22;5198;52.382;9.020;2023-06-05T23:58:05;15.50;99.70
